Time;durP1;ratioP1;P1;durP2;ratioP2;P2;SDS_P1;SDS_P2;PMS_P1;PMS_P2;Temp;Humidity;BMP_temperature;BMP_pressure;BME280_temperature;BME280_humidity;BME280_pressure;Samples;Min_cycle;Max_cycle;Signal;HPM_P1;HPM_P2
2023/01/06 00:01:30;;;;;;;;;;;;;;;10.42;54.28;99957.72;5062994;28;19920;-94
2023/01/06 00:03:57;;;;;;;;;;;;;;;10.53;53.96;99953.22;5072124;28;19913;-95
2023/01/06 00:06:28;;;;;;;;;;;;;;;10.59;53.93;99961.97;5073447;28;19923;-95
2023/01/06 00:08:54;;;;;;;;;;;;;;;10.53;53.81;99969.06;5066842;28;19960;-94
2023/01/06 00:11:35;;;;;;;;;;;;;;;10.57;53.61;99973.38;5062071;28;19951;-96
2023/01/06 00:14:01;;;;;;;;;;;;;;;10.59;53.44;99967.22;5061518;28;19935;-96
2023/01/06 00:16:26;;;;;;;;;;;;;;;10.56;53.86;99968.13;5060462;28;19912;-94
2023/01/06 00:18:56;;;;;;;;;;;;;;;10.36;54.25;99984.16;5057312;28;19952;-96
2023/01/06 00:21:22;;;;;;;;;;;;;;;10.45;54.42;99978.78;5060539;28;19919;-94
2023/01/06 00:23:48;;;;;;;;;;;;;;;10.44;54.78;99989.34;5052709;28;19912;-92
2023/01/06 00:29:14;;;;;;;;;;;;;;;10.56;53.99;99989.22;5146088;22;19941;-96
2023/01/06 00:32:01;;;;;;;;;;;;;;;10.59;54.11;99994.47;5029351;28;19917;-96
2023/01/06 00:34:28;;;;;;;;;;;;;;;10.54;53.92;100004.22;5028625;28;19914;-96
2023/01/06 00:37:25;;;;;;;;;;;;;;;10.47;53.71;100002.50;5026245;28;20008;-96
2023/01/06 00:39:51;;;;;;;;;;;;;;;10.41;54.06;99998.19;5021436;28;19913;-96
2023/01/06 00:42:25;;;;;;;;;;;;;;;10.36;53.63;100000.88;5016893;28;19904;-96
2023/01/06 00:44:51;;;;;;;;;;;;;;;10.36;54.02;100005.25;5017137;28;19913;-96
2023/01/06 00:47:17;;;;;;;;;;;;;;;10.18;54.26;100006.28;5014233;28;19909;-96
2023/01/06 00:49:43;;;;;;;;;;;;;;;10.15;54.45;100032.66;5019040;28;20291;-96
2023/01/06 00:52:08;;;;;;;;;;;;;;;10.15;54.86;100016.84;5015966;28;19920;-96
2023/01/06 00:54:35;;;;;;;;;;;;;;;10.02;55.22;100022.22;4997249;28;19924;-95
2023/01/06 00:57:02;;;;;;;;;;;;;;;10.14;54.76;100009.81;5014112;28;19913;-95
2023/01/06 00:59:33;;;;;;;;;;;;;;;10.11;54.94;100025.66;5013991;28;19914;-96
2023/01/06 01:02:23;;;;;;;;;;;;;;;9.98;55.05;100022.25;5027646;28;19948;-96
2023/01/06 01:04:49;;;;;;;;;;;;;;;9.91;55.20;100020.53;5013458;28;20360;-94
2023/01/06 01:07:15;;;;;;;;;;;;;;;9.97;55.22;100031.03;5014610;28;19915;-95
2023/01/06 01:09:42;;;;;;;;;;;;;;;10.01;55.53;100030.13;5013327;28;20067;-96
2023/01/06 01:12:08;;;;;;;;;;;;;;;9.90;54.59;100024.94;5015329;28;19913;-94
2023/01/06 01:14:35;;;;;;;;;;;;;;;10.02;54.70;100022.22;5013005;28;19914;-96
2023/01/06 01:17:00;;;;;;;;;;;;;;;10.13;54.49;100022.13;5018302;28;19918;-96
2023/01/06 01:22:02;;;;;;;;;;;;;;;10.33;53.73;100010.56;5080579;22;19925;-96
2023/01/06 01:24:46;;;;;;;;;;;;;;;10.60;53.20;100013.81;5066025;28;19944;-96
2023/01/06 01:27:36;;;;;;;;;;;;;;;10.69;53.04;100014.59;5065206;28;19912;-96
2023/01/06 01:30:19;;;;;;;;;;;;;;;10.80;52.34;100010.97;5067460;28;19963;-96
2023/01/06 01:32:47;;;;;;;;;;;;;;;10.82;51.93;100017.13;5063603;28;20390;-95
2023/01/06 01:35:13;;;;;;;;;;;;;;;10.95;52.03;100020.47;5050189;28;19928;-96
2023/01/06 01:38:00;;;;;;;;;;;;;;;10.92;51.69;100021.38;5073624;28;19972;-96
2023/01/06 01:40:26;;;;;;;;;;;;;;;10.93;51.54;100031.06;5066195;28;19960;-94
2023/01/06 01:42:53;;;;;;;;;;;;;;;11.04;51.35;100028.28;5065538;28;19931;-96
2023/01/06 01:45:23;;;;;;;;;;;;;;;11.00;52.05;100030.09;5058740;28;19924;-93
2023/01/06 01:47:56;;;;;;;;;;;;;;;10.98;52.14;100041.56;5074933;28;19905;-96
2023/01/06 01:50:42;;;;;;;;;;;;;;;10.86;52.71;100027.63;5060146;28;19952;-96
2023/01/06 01:53:27;;;;;;;;;;;;;;;10.99;52.19;100031.00;5040911;28;19916;-95
2023/01/06 01:55:54;;;;;;;;;;;;;;;11.08;51.87;100022.97;5058569;28;19913;-95
2023/01/06 02:01:31;;;;;;;;;;;;;;;11.34;51.14;100021.78;5056924;28;19959;-94
2023/01/06 02:03:57;;;;;;;;;;;;;;;11.35;50.39;100027.91;5040836;28;19917;-95
2023/01/06 02:06:24;;;;;;;;;;;;;;;11.49;50.15;100030.38;5057052;28;19956;-94
2023/01/06 02:09:08;;;;;;;;;;;;;;;11.55;50.44;100020.59;5059220;28;20007;-92
2023/01/06 02:11:35;;;;;;;;;;;;;;;11.47;51.05;100019.84;5053022;28;19920;-95
2023/01/06 02:14:06;;;;;;;;;;;;;;;11.44;50.87;100004.91;5052704;28;19919;-94
2023/01/06 02:16:45;;;;;;;;;;;;;;;11.48;51.74;100000.47;5054058;28;19916;-93
2023/01/06 02:19:28;;;;;;;;;;;;;;;11.55;51.93;100009.16;5055542;28;19913;-96
2023/01/06 02:22:02;;;;;;;;;;;;;;;11.51;52.17;100018.91;5056111;28;19939;-96
2023/01/06 02:24:40;;;;;;;;;;;;;;;11.54;52.17;100010.06;5060203;28;19916;-95
2023/01/06 02:27:26;;;;;;;;;;;;;;;11.53;51.98;100003.03;5060971;28;20008;-95
2023/01/06 02:29:57;;;;;;;;;;;;;;;11.55;52.15;99999.47;5058580;28;20007;-95
2023/01/06 02:32:41;;;;;;;;;;;;;;;11.46;52.06;99989.03;5056018;28;19948;-94
2023/01/06 02:35:26;;;;;;;;;;;;;;;11.47;52.17;99996.06;5056042;28;19913;-95
2023/01/06 02:38:10;;;;;;;;;;;;;;;11.54;52.20;99981.00;5058019;28;19913;-94
2023/01/06 02:40:43;;;;;;;;;;;;;;;11.57;52.16;99978.31;5057523;28;20278;-92
2023/01/06 02:43:08;;;;;;;;;;;;;;;11.64;52.18;99970.25;5057243;28;20405;-95
2023/01/06 02:45:46;;;;;;;;;;;;;;;11.69;51.78;99951.69;5057696;28;19920;-92
2023/01/06 02:48:19;;;;;;;;;;;;;;;11.71;51.48;99941.09;5056584;28;20011;-95
2023/01/06 02:51:08;;;;;;;;;;;;;;;11.75;51.32;99937.53;5054427;28;19913;-95
2023/01/06 02:53:52;;;;;;;;;;;;;;;11.88;51.27;99933.78;5054900;28;19966;-94
2023/01/06 02:56:21;;;;;;;;;;;;;;;11.92;51.39;99930.22;5060147;28;19913;-95
2023/01/06 02:58:56;;;;;;;;;;;;;;;12.04;51.08;99934.44;5058779;28;20087;-96
2023/01/06 03:01:34;;;;;;;;;;;;;;;12.09;50.56;99918.50;5059439;28;19916;-96
2023/01/06 03:04:05;;;;;;;;;;;;;;;12.10;50.96;99912.31;5065927;28;19935;-96
2023/01/06 03:06:43;;;;;;;;;;;;;;;12.08;50.45;99908.78;5062988;28;19924;-94
2023/01/06 03:09:19;;;;;;;;;;;;;;;12.14;50.74;99898.13;5063655;28;20030;-96
2023/01/06 03:11:58;;;;;;;;;;;;;;;12.14;50.44;99888.44;5069584;28;20314;-95
2023/01/06 03:14:29;;;;;;;;;;;;;;;12.23;50.36;99873.28;5069177;28;19920;-94
2023/01/06 03:17:01;;;;;;;;;;;;;;;12.31;50.38;99882.81;5041603;28;20058;-94
2023/01/06 03:19:26;;;;;;;;;;;;;;;12.43;49.19;99886.13;5065232;28;20454;-96
2023/01/06 03:21:53;;;;;;;;;;;;;;;12.42;49.47;99882.63;5061080;28;19952;-94
2023/01/06 03:24:18;;;;;;;;;;;;;;;12.52;48.56;99886.81;5065750;28;19912;-96
2023/01/06 03:26:45;;;;;;;;;;;;;;;12.52;47.68;99913.25;5046148;28;19923;-96
2023/01/06 03:29:18;;;;;;;;;;;;;;;12.72;47.77;99919.94;5053173;28;19920;-96
2023/01/06 03:32:22;;;;;;;;;;;;;;;12.61;47.88;99933.38;5072422;28;19967;-96
2023/01/06 03:35:08;;;;;;;;;;;;;;;12.65;47.71;99929.78;5070024;28;19920;-96
2023/01/06 03:37:43;;;;;;;;;;;;;;;12.55;47.73;99922.94;5053865;28;19900;-96
2023/01/06 03:40:30;;;;;;;;;;;;;;;12.47;47.98;99925.72;5053138;28;20426;-96
2023/01/06 03:43:19;;;;;;;;;;;;;;;12.39;48.26;99932.94;5065250;28;19913;-96
2023/01/06 03:46:08;;;;;;;;;;;;;;;12.26;48.38;99942.00;5060879;28;19920;-96
2023/01/06 03:48:43;;;;;;;;;;;;;;;12.18;48.47;99947.41;5039515;28;19913;-94
2023/01/06 03:51:09;;;;;;;;;;;;;;;12.16;48.30;99942.16;5042195;28;19986;-96
2023/01/06 03:53:38;;;;;;;;;;;;;;;12.21;48.29;99947.34;5058098;28;19912;-96
2023/01/06 03:56:23;;;;;;;;;;;;;;;12.20;48.48;99948.25;5066464;28;19935;-96
2023/01/06 03:58:52;;;;;;;;;;;;;;;12.09;48.60;99953.72;5055137;28;19913;-95
2023/01/06 04:01:19;;;;;;;;;;;;;;;11.93;49.47;99955.75;5064925;28;19935;-95
2023/01/06 04:03:45;;;;;;;;;;;;;;;11.94;49.33;99952.22;5056755;28;20393;-95
2023/01/06 04:06:26;;;;;;;;;;;;;;;12.04;49.34;99968.81;5057745;28;19912;-96
2023/01/06 04:08:51;;;;;;;;;;;;;;;11.93;49.66;99973.41;5068403;28;19923;-93
2023/01/06 04:14:32;;;;;;;;;;;;;;;11.88;49.76;99993.69;5059196;28;19919;-96
2023/01/06 04:16:59;;;;;;;;;;;;;;;11.86;50.32;99995.50;5061515;28;19920;-95
2023/01/06 04:19:26;;;;;;;;;;;;;;;11.76;50.70;99998.28;5056272;28;19912;-95
2023/01/06 04:22:00;;;;;;;;;;;;;;;11.72;50.92;100001.84;5062736;28;19927;-96
2023/01/06 04:24:27;;;;;;;;;;;;;;;11.77;51.21;99999.16;5070094;28;19919;-95
2023/01/06 04:26:52;;;;;;;;;;;;;;;11.66;51.63;99996.66;5074605;28;19935;-94
2023/01/06 04:29:33;;;;;;;;;;;;;;;11.48;52.40;99997.81;5072486;28;19912;-96
2023/01/06 04:32:09;;;;;;;;;;;;;;;11.45;52.91;100005.78;5058966;28;19913;-90
2023/01/06 04:34:34;;;;;;;;;;;;;;;11.47;53.14;99999.56;5055097;28;19913;-94
2023/01/06 04:37:00;;;;;;;;;;;;;;;11.61;53.21;100012.59;5052616;28;19912;-91
2023/01/06 04:39:25;;;;;;;;;;;;;;;11.47;53.36;100018.06;5036426;28;19924;-93
2023/01/06 04:41:51;;;;;;;;;;;;;;;11.54;53.29;100020.63;5054268;28;20282;-95
2023/01/06 04:44:17;;;;;;;;;;;;;;;11.48;53.47;100034.81;5059052;28;19913;-93
2023/01/06 04:46:43;;;;;;;;;;;;;;;11.31;54.01;100042.94;5067070;28;19912;-92
2023/01/06 04:51:45;;;;;;;;;;;;;;;11.02;54.90;100051.22;5028335;28;19922;-95
2023/01/06 04:54:12;;;;;;;;;;;;;;;11.02;54.94;100057.34;5007468;28;19944;-94
2023/01/06 04:56:40;;;;;;;;;;;;;;;10.87;55.42;100054.88;5020714;28;19913;-94
2023/01/06 04:59:07;;;;;;;;;;;;;;;10.75;55.98;100056.75;5014597;28;20287;-94
2023/01/06 05:01:32;;;;;;;;;;;;;;;10.78;55.83;100062.88;5012869;28;19909;-91
2023/01/06 05:03:57;;;;;;;;;;;;;;;10.81;56.23;100074.28;5014659;28;20385;-93
2023/01/06 05:06:23;;;;;;;;;;;;;;;10.68;56.36;100084.09;5027872;28;19933;-90
2023/01/06 05:08:48;;;;;;;;;;;;;;;10.79;56.00;100083.97;5035475;28;19916;-90
2023/01/06 05:11:18;;;;;;;;;;;;;;;10.79;55.87;100086.63;5015879;28;19920;-92
2023/01/06 05:13:43;;;;;;;;;;;;;;;10.93;55.04;100092.63;5014111;28;19916;-91
2023/01/06 05:16:10;;;;;;;;;;;;;;;11.00;55.18;100105.75;5017699;28;19913;-93
2023/01/06 05:18:35;;;;;;;;;;;;;;;10.76;56.00;100107.75;5017679;28;19945;-92
2023/01/06 05:21:01;;;;;;;;;;;;;;;10.68;56.18;100110.47;5014825;28;19948;-94
2023/01/06 05:23:26;;;;;;;;;;;;;;;10.67;55.83;100090.25;5014430;28;19964;-93
2023/01/06 05:25:51;;;;;;;;;;;;;;;10.66;55.84;100098.16;5014093;28;19914;-91
2023/01/06 05:28:17;;;;;;;;;;;;;;;10.77;55.49;100093.69;5015270;28;19913;-93
2023/01/06 05:30:43;;;;;;;;;;;;;;;10.80;55.41;100092.75;5014589;28;19917;-92
2023/01/06 05:33:08;;;;;;;;;;;;;;;10.84;55.58;100107.69;5013278;28;19956;-94
2023/01/06 05:35:34;;;;;;;;;;;;;;;10.73;55.45;100103.38;5014939;28;19909;-91
2023/01/06 05:37:59;;;;;;;;;;;;;;;10.66;55.65;100114.00;5015397;28;20292;-91
2023/01/06 05:40:24;;;;;;;;;;;;;;;10.69;55.74;100108.69;5013720;28;19949;-92
2023/01/06 05:42:54;;;;;;;;;;;;;;;10.65;56.21;100110.50;5016136;28;19949;-93
2023/01/06 05:45:19;;;;;;;;;;;;;;;10.43;56.12;100099.25;5016744;28;19914;-91
2023/01/06 05:47:44;;;;;;;;;;;;;;;10.49;56.35;100111.53;5015443;28;19918;-90
2023/01/06 05:50:10;;;;;;;;;;;;;;;10.44;56.51;100102.75;5015395;28;19924;-93
2023/01/06 05:52:35;;;;;;;;;;;;;;;10.48;56.68;100108.00;5015840;28;19980;-93
2023/01/06 05:55:00;;;;;;;;;;;;;;;10.44;56.41;100113.31;5012899;28;20418;-93
2023/01/06 05:57:25;;;;;;;;;;;;;;;10.42;56.66;100113.31;5012573;28;19913;-95
2023/01/06 05:59:51;;;;;;;;;;;;;;;10.35;56.30;100109.88;5013794;28;20004;-91
2023/01/06 06:02:16;;;;;;;;;;;;;;;10.42;56.08;100117.72;5014285;28;19913;-95
2023/01/06 06:04:42;;;;;;;;;;;;;;;10.44;55.92;100118.59;5016371;28;19947;-91
2023/01/06 06:07:07;;;;;;;;;;;;;;;10.52;55.77;100132.63;5012668;28;19920;-96
2023/01/06 06:09:32;;;;;;;;;;;;;;;10.48;55.71;100117.69;5014735;28;20040;-92
2023/01/06 06:11:58;;;;;;;;;;;;;;;10.52;55.46;100127.34;5013979;28;19968;-95
2023/01/06 06:14:25;;;;;;;;;;;;;;;10.53;55.49;100119.41;5013335;28;19914;-94
2023/01/06 06:16:50;;;;;;;;;;;;;;;10.60;55.20;100119.31;5012401;28;19944;-94
2023/01/06 06:19:15;;;;;;;;;;;;;;;10.64;54.93;100139.53;5011952;28;19948;-95
2023/01/06 06:21:41;;;;;;;;;;;;;;;10.60;54.52;100129.88;5013947;28;19913;-92
2023/01/06 06:24:06;;;;;;;;;;;;;;;10.64;54.22;100132.47;5012874;28;19913;-94
2023/01/06 06:26:31;;;;;;;;;;;;;;;10.80;53.79;100132.34;5012044;28;19914;-95
2023/01/06 06:28:57;;;;;;;;;;;;;;;10.86;53.03;100132.28;5012921;28;19910;-90
2023/01/06 06:31:23;;;;;;;;;;;;;;;11.10;53.20;100123.28;5013514;28;19951;-93
2023/01/06 06:33:49;;;;;;;;;;;;;;;11.06;52.08;100132.09;5012856;28;19914;-90
2023/01/06 06:36:15;;;;;;;;;;;;;;;11.16;51.43;100143.47;5011742;28;20067;-94
2023/01/06 06:38:41;;;;;;;;;;;;;;;11.35;50.36;100152.06;5011731;28;20000;-91
2023/01/06 06:41:06;;;;;;;;;;;;;;;11.56;49.89;100164.16;5014029;28;19913;-93
2023/01/06 06:43:32;;;;;;;;;;;;;;;11.65;49.67;100166.69;5011961;28;19920;-96
2023/01/06 06:45:57;;;;;;;;;;;;;;;11.69;49.06;100168.38;5013616;28;19914;-92
2023/01/06 06:48:23;;;;;;;;;;;;;;;11.68;49.29;100164.03;5012189;28;19914;-89
2023/01/06 06:50:58;;;;;;;;;;;;;;;11.75;49.21;100181.53;5014303;28;19918;-90
2023/01/06 06:53:24;;;;;;;;;;;;;;;11.98;48.19;100185.69;5011664;28;19971;-89
2023/01/06 06:55:49;;;;;;;;;;;;;;;11.90;47.99;100182.25;5012592;28;20314;-92
2023/01/06 06:58:14;;;;;;;;;;;;;;;12.08;48.37;100181.16;5010704;28;19953;-93
2023/01/06 07:00:40;;;;;;;;;;;;;;;12.10;47.84;100177.59;5014240;28;19937;-88
2023/01/06 07:03:05;;;;;;;;;;;;;;;12.19;47.88;100184.56;5012693;28;19917;-92
2023/01/06 07:05:30;;;;;;;;;;;;;;;12.16;47.99;100184.59;5011749;28;19922;-91
2023/01/06 07:07:57;;;;;;;;;;;;;;;12.18;47.57;100182.78;5012428;28;20299;-90
2023/01/06 07:10:22;;;;;;;;;;;;;;;12.30;47.52;100187.91;5011350;28;19913;-93
2023/01/06 07:12:48;;;;;;;;;;;;;;;12.35;47.41;100180.78;5013334;28;20004;-92
2023/01/06 07:15:13;;;;;;;;;;;;;;;12.35;46.72;100190.50;5015680;28;19913;-91
2023/01/06 07:17:40;;;;;;;;;;;;;;;12.38;47.11;100181.66;5015714;28;19918;-89
2023/01/06 07:20:06;;;;;;;;;;;;;;;12.44;45.91;100203.59;5015358;28;20483;-94
2023/01/06 07:22:35;;;;;;;;;;;;;;;12.45;46.23;100201.81;5015310;28;19921;-94
2023/01/06 07:25:00;;;;;;;;;;;;;;;12.53;45.76;100207.88;5014929;28;20364;-94
2023/01/06 07:27:26;;;;;;;;;;;;;;;12.46;46.09;100203.56;5014550;28;19920;-92
2023/01/06 07:29:52;;;;;;;;;;;;;;;12.56;46.58;100205.19;5015043;28;19916;-91
2023/01/06 07:32:18;;;;;;;;;;;;;;;12.70;45.71;100212.91;5015472;28;19972;-92
2023/01/06 07:34:43;;;;;;;;;;;;;;;12.83;45.66;100218.88;5016626;28;19913;-92
2023/01/06 07:37:08;;;;;;;;;;;;;;;12.94;45.96;100229.31;5014435;28;19913;-92
2023/01/06 07:39:36;;;;;;;;;;;;;;;12.93;44.88;100230.19;5015651;28;19956;-95
2023/01/06 07:42:02;;;;;;;;;;;;;;;12.85;45.01;100233.84;5015437;28;19917;-93
2023/01/06 07:44:27;;;;;;;;;;;;;;;12.87;44.92;100231.19;5014315;28;19914;-90
2023/01/06 07:46:53;;;;;;;;;;;;;;;12.98;44.60;100229.22;5014103;28;19914;-91
2023/01/06 07:49:18;;;;;;;;;;;;;;;12.94;44.83;100232.81;5013829;28;19960;-90
2023/01/06 07:51:43;;;;;;;;;;;;;;;13.13;44.64;100228.09;5014107;28;20338;-91
2023/01/06 07:54:09;;;;;;;;;;;;;;;13.15;44.64;100233.38;5014071;28;19914;-91
2023/01/06 07:56:34;;;;;;;;;;;;;;;13.16;44.88;100240.41;5015039;28;20392;-93
2023/01/06 07:58:59;;;;;;;;;;;;;;;13.34;44.04;100239.25;5015072;28;19913;-90
2023/01/06 08:01:25;;;;;;;;;;;;;;;13.28;43.74;100242.84;5015583;28;19921;-92
2023/01/06 08:03:50;;;;;;;;;;;;;;;13.22;44.08;100241.19;5015778;28;19913;-94
2023/01/06 08:06:15;;;;;;;;;;;;;;;13.26;44.33;100247.31;5014606;28;20046;-94
2023/01/06 08:08:40;;;;;;;;;;;;;;;13.28;43.47;100252.56;5016008;28;19913;-95
2023/01/06 08:11:06;;;;;;;;;;;;;;;13.16;43.36;100251.00;5015677;28;19920;-96
2023/01/06 08:13:33;;;;;;;;;;;;;;;13.30;43.44;100240.16;5014872;28;19921;-91
2023/01/06 08:16:02;;;;;;;;;;;;;;;13.34;43.17;100242.75;5015593;28;20260;-94
2023/01/06 08:18:27;;;;;;;;;;;;;;;13.48;43.25;100244.31;5015574;28;19956;-89
2023/01/06 08:20:58;;;;;;;;;;;;;;;13.35;42.69;100252.47;5015919;28;19921;-90
2023/01/06 08:23:24;;;;;;;;;;;;;;;13.43;43.35;100257.63;5017645;28;20279;-92
2023/01/06 08:25:49;;;;;;;;;;;;;;;13.76;42.59;100256.16;5015673;28;19920;-90
2023/01/06 08:28:14;;;;;;;;;;;;;;;13.72;42.09;100267.72;5024626;28;19901;-90
2023/01/06 08:30:41;;;;;;;;;;;;;;;13.87;42.29;100266.56;5039706;28;19906;-91
2023/01/06 08:33:06;;;;;;;;;;;;;;;13.81;41.96;100265.78;5018032;28;19972;-90
2023/01/06 08:35:35;;;;;;;;;;;;;;;13.87;41.42;100268.31;5014667;28;19921;-91
2023/01/06 08:38:00;;;;;;;;;;;;;;;13.84;41.55;100276.31;5014047;28;19913;-89
2023/01/06 08:40:25;;;;;;;;;;;;;;;13.92;41.15;100256.72;5013788;28;20394;-90
2023/01/06 08:42:51;;;;;;;;;;;;;;;13.90;40.70;100252.34;5014211;28;19913;-90
2023/01/06 08:45:16;;;;;;;;;;;;;;;14.11;40.24;100262.53;5014538;28;19943;-93
2023/01/06 08:47:42;;;;;;;;;;;;;;;14.18;40.59;100263.28;5012755;28;19917;-91
2023/01/06 08:50:08;;;;;;;;;;;;;;;14.04;39.67;100268.88;5013841;28;19986;-92
2023/01/06 08:52:33;;;;;;;;;;;;;;;13.86;39.03;100277.19;5012545;28;19921;-91
2023/01/06 08:55:00;;;;;;;;;;;;;;;13.86;39.19;100266.59;5014082;28;19918;-92
2023/01/06 08:57:25;;;;;;;;;;;;;;;14.01;39.31;100239.75;5012513;28;19948;-88
2023/01/06 08:59:50;;;;;;;;;;;;;;;14.00;39.23;100268.97;5013953;28;19913;-91
2023/01/06 09:02:17;;;;;;;;;;;;;;;14.05;39.15;100267.09;5013460;28;19914;-90
2023/01/06 09:04:42;;;;;;;;;;;;;;;14.21;38.39;100270.28;5012553;28;20331;-89
2023/01/06 09:07:08;;;;;;;;;;;;;;;13.93;39.69;100269.09;5013332;28;19964;-90
2023/01/06 09:09:33;;;;;;;;;;;;;;;13.87;39.04;100271.84;5013928;28;19914;-89
2023/01/06 09:11:58;;;;;;;;;;;;;;;14.13;39.25;100274.00;5013314;28;19917;-88
2023/01/06 09:14:24;;;;;;;;;;;;;;;14.08;39.27;100267.03;5013438;28;19918;-91
2023/01/06 09:16:49;;;;;;;;;;;;;;;14.13;39.27;100266.03;5013424;28;19913;-89
2023/01/06 09:19:15;;;;;;;;;;;;;;;14.18;39.65;100268.59;5013292;28;19956;-89
2023/01/06 09:21:41;;;;;;;;;;;;;;;14.35;39.54;100256.72;5013036;28;20277;-90
2023/01/06 09:24:10;;;;;;;;;;;;;;;14.35;38.71;100260.28;5013235;28;19936;-88
2023/01/06 09:26:36;;;;;;;;;;;;;;;14.24;39.46;100271.13;5014755;28;19936;-92
2023/01/06 09:29:02;;;;;;;;;;;;;;;14.27;38.64;100248.94;5017446;28;20368;-91
2023/01/06 09:31:27;;;;;;;;;;;;;;;14.34;39.63;100245.25;5016485;28;20028;-89
2023/01/06 09:33:53;;;;;;;;;;;;;;;14.47;38.38;100230.81;5015819;28;20360;-94
2023/01/06 09:36:18;;;;;;;;;;;;;;;14.47;38.60;100216.66;5012947;28;19920;-93
2023/01/06 09:38:45;;;;;;;;;;;;;;;14.39;38.92;100208.84;5013364;28;19952;-91
2023/01/06 09:41:36;;;;;;;;;;;;;;;14.46;38.66;100197.19;5013222;28;19932;-90
2023/01/06 09:44:07;;;;;;;;;;;;;;;14.50;38.35;100196.22;5012278;28;20403;-90
2023/01/06 09:46:35;;;;;;;;;;;;;;;14.59;37.44;100183.63;5013000;28;20364;-90
2023/01/06 09:49:08;;;;;;;;;;;;;;;14.82;37.59;100181.31;5013369;28;19920;-93
2023/01/06 09:51:35;;;;;;;;;;;;;;;14.65;36.46;100191.50;5008307;28;19980;-90
2023/01/06 09:54:24;;;;;;;;;;;;;;;14.49;37.67;100183.84;5012073;28;19967;-92
2023/01/06 09:56:55;;;;;;;;;;;;;;;14.54;37.57;100167.81;5007762;28;20008;-93
2023/01/06 09:59:23;;;;;;;;;;;;;;;14.47;37.61;100176.81;5012658;28;19997;-92
2023/01/06 10:01:48;;;;;;;;;;;;;;;14.59;37.45;100163.25;5014619;28;19916;-91
2023/01/06 10:04:21;;;;;;;;;;;;;;;14.85;37.93;100175.06;5014399;28;19914;-94
2023/01/06 10:06:57;;;;;;;;;;;;;;;14.86;36.87;100177.69;5013901;28;19909;-95
2023/01/06 10:09:34;;;;;;;;;;;;;;;14.83;37.17;100168.94;5012282;28;19914;-93
2023/01/06 10:12:03;;;;;;;;;;;;;;;14.75;36.75;100169.13;5013532;28;19979;-93
2023/01/06 10:14:37;;;;;;;;;;;;;;;15.00;37.06;100174.69;5012872;28;19914;-91
2023/01/06 10:17:05;;;;;;;;;;;;;;;15.04;36.11;100167.50;5013921;28;19977;-95
2023/01/06 10:19:43;;;;;;;;;;;;;;;15.04;35.79;100162.19;5013286;28;19924;-94
2023/01/06 10:22:18;;;;;;;;;;;;;;;15.19;35.27;100169.75;5018993;28;19920;-91
2023/01/06 10:24:54;;;;;;;;;;;;;;;15.09;36.02;100173.59;5013154;28;19948;-94
2023/01/06 10:27:25;;;;;;;;;;;;;;;15.24;35.04;100190.91;5016540;28;20315;-87
2023/01/06 10:29:53;;;;;;;;;;;;;;;15.10;36.11;100164.69;5016264;28;19920;-95
2023/01/06 10:32:22;;;;;;;;;;;;;;;14.85;35.54;100175.06;5013748;28;19953;-92
2023/01/06 10:34:49;;;;;;;;;;;;;;;14.90;35.46;100185.59;5013766;28;19914;-92
2023/01/06 10:37:44;;;;;;;;;;;;;;;15.12;35.52;100172.63;5013047;28;19917;-94
2023/01/06 10:40:28;;;;;;;;;;;;;;;15.26;35.73;100174.91;5005504;28;19944;-96
2023/01/06 10:43:01;;;;;;;;;;;;;;;15.26;35.08;100177.56;5012385;28;19983;-94
2023/01/06 10:45:32;;;;;;;;;;;;;;;15.18;34.48;100173.34;5016347;28;19981;-92
2023/01/06 10:47:58;;;;;;;;;;;;;;;15.20;35.11;100174.16;5018305;28;19913;-95
2023/01/06 10:50:23;;;;;;;;;;;;;;;15.25;34.84;100170.53;5019343;28;19959;-95
2023/01/06 10:52:51;;;;;;;;;;;;;;;15.31;34.84;100162.38;5017969;28;19921;-96
2023/01/06 10:55:28;;;;;;;;;;;;;;;15.40;34.53;100160.34;5017767;28;19910;-93
2023/01/06 10:57:56;;;;;;;;;;;;;;;15.38;34.36;100148.00;5018702;28;19937;-96
2023/01/06 11:00:22;;;;;;;;;;;;;;;15.27;35.36;100140.31;5018470;28;19913;-91
2023/01/06 11:02:54;;;;;;;;;;;;;;;15.43;34.72;100135.47;5018034;28;19920;-96
2023/01/06 11:05:24;;;;;;;;;;;;;;;15.65;34.92;100142.84;5019031;28;19913;-95
2023/01/06 11:08:07;;;;;;;;;;;;;;;15.60;34.24;100124.34;5015903;28;19920;-92
2023/01/06 11:10:38;;;;;;;;;;;;;;;15.35;34.65;100122.41;5016941;28;19920;-92
2023/01/06 11:13:04;;;;;;;;;;;;;;;15.33;35.49;100118.03;5015770;28;19913;-92
2023/01/06 11:15:34;;;;;;;;;;;;;;;15.48;34.81;100120.25;5017233;28;19956;-95
2023/01/06 11:17:59;;;;;;;;;;;;;;;15.72;34.52;100108.03;5015886;28;19914;-93
2023/01/06 11:20:25;;;;;;;;;;;;;;;15.57;34.36;100112.00;5014920;28;19940;-93
2023/01/06 11:22:50;;;;;;;;;;;;;;;15.52;33.85;100115.72;5016931;28;20007;-93
2023/01/06 11:25:18;;;;;;;;;;;;;;;15.52;33.79;100113.94;5016678;28;20291;-94
2023/01/06 11:27:44;;;;;;;;;;;;;;;15.60;33.91;100112.84;5016376;28;20355;-95
2023/01/06 11:30:26;;;;;;;;;;;;;;;15.75;33.68;100112.38;5018755;28;19914;-96
2023/01/06 11:32:51;;;;;;;;;;;;;;;15.65;33.61;100108.28;5016699;28;19949;-92
2023/01/06 11:35:19;;;;;;;;;;;;;;;15.50;34.14;100110.44;5014936;28;19913;-95
2023/01/06 11:37:44;;;;;;;;;;;;;;;15.38;34.36;100100.16;5016538;28;19913;-96
2023/01/06 11:40:12;;;;;;;;;;;;;;;15.40;34.74;100101.00;5017059;28;19920;-92
2023/01/06 11:42:39;;;;;;;;;;;;;;;15.49;33.92;100102.50;5017407;28;19914;-94
2023/01/06 11:45:05;;;;;;;;;;;;;;;15.56;33.76;100096.09;5019358;28;19909;-94
2023/01/06 11:47:30;;;;;;;;;;;;;;;15.62;33.39;100089.75;5022346;28;19920;-94
2023/01/06 11:49:56;;;;;;;;;;;;;;;15.71;33.39;100097.44;5025020;28;19918;-95
2023/01/06 11:52:26;;;;;;;;;;;;;;;15.76;33.80;100093.72;5033252;28;19924;-95
2023/01/06 11:55:00;;;;;;;;;;;;;;;15.86;33.52;100091.66;5105390;22;19920;-93
2023/01/06 11:57:31;;;;;;;;;;;;;;;15.90;33.25;100088.00;5057415;28;19919;-93
2023/01/06 12:00:15;;;;;;;;;;;;;;;15.75;32.99;100097.31;5056746;28;19917;-94
2023/01/06 12:03:02;;;;;;;;;;;;;;;15.60;33.26;100095.13;5055343;28;19916;-91
2023/01/06 12:05:36;;;;;;;;;;;;;;;15.77;33.60;100081.34;5055666;28;19912;-90
2023/01/06 12:08:07;;;;;;;;;;;;;;;15.77;33.46;100094.66;5055987;28;20286;-95
2023/01/06 12:10:36;;;;;;;;;;;;;;;15.69;32.91;100097.50;5070637;28;19913;-91
2023/01/06 12:13:02;;;;;;;;;;;;;;;15.71;33.49;100079.69;5055086;28;19991;-93
2023/01/06 12:15:30;;;;;;;;;;;;;;;15.75;33.13;100075.16;5037921;28;19962;-91
2023/01/06 12:18:06;;;;;;;;;;;;;;;15.92;33.06;100074.66;5054571;28;19913;-91
2023/01/06 12:20:34;;;;;;;;;;;;;;;15.85;32.92;100074.00;5054882;28;19971;-90
2023/01/06 12:23:00;;;;;;;;;;;;;;;15.70;32.66;100064.66;5054663;28;19921;-90
2023/01/06 12:25:36;;;;;;;;;;;;;;;15.72;33.23;100068.16;5053015;28;19948;-93
2023/01/06 12:28:08;;;;;;;;;;;;;;;16.00;33.25;100074.44;5055696;28;19986;-93
2023/01/06 12:30:38;;;;;;;;;;;;;;;16.07;33.16;100086.63;5053325;28;19971;-91
2023/01/06 12:33:26;;;;;;;;;;;;;;;15.86;32.70;100077.50;5054502;28;19913;-95
2023/01/06 12:35:58;;;;;;;;;;;;;;;15.72;32.60;100083.22;5043096;28;19913;-91
2023/01/06 12:38:34;;;;;;;;;;;;;;;15.74;33.15;100081.41;5053305;28;19917;-92
2023/01/06 12:41:03;;;;;;;;;;;;;;;15.78;34.12;100095.50;5053927;28;20058;-93
2023/01/06 12:43:31;;;;;;;;;;;;;;;15.90;33.35;100089.81;5053531;28;19946;-93
2023/01/06 12:46:01;;;;;;;;;;;;;;;15.90;33.43;100100.44;5052862;28;20339;-93
2023/01/06 12:48:33;;;;;;;;;;;;;;;15.83;33.36;100102.41;5054783;28;19919;-92
2023/01/06 12:51:10;;;;;;;;;;;;;;;15.78;33.64;100093.69;5054691;28;19913;-91
2023/01/06 12:53:44;;;;;;;;;;;;;;;15.72;33.58;100108.03;5054281;28;19913;-92
2023/01/06 12:56:21;;;;;;;;;;;;;;;15.72;33.36;100115.13;5054005;28;19927;-91
2023/01/06 12:59:05;;;;;;;;;;;;;;;15.70;33.64;100120.50;5052537;28;19912;-91
2023/01/06 13:01:33;;;;;;;;;;;;;;;15.75;33.22;100115.03;5052706;28;20398;-91
2023/01/06 13:04:21;;;;;;;;;;;;;;;15.83;33.38;100117.50;5052548;28;20060;-90
2023/01/06 13:07:10;;;;;;;;;;;;;;;15.68;33.98;100125.00;5070100;28;19913;-91